sensor_id;sensor_type;location;lat;lon;timestamp;P1;durP1;ratioP1;P2;durP2;ratioP2
57335;SDS011;43171;50.994;18.204;2022-10-31T00:01:34;32.10;;;20.10;;
57335;SDS011;43171;50.994;18.204;2022-10-31T00:11:19;15.00;;;11.70;;
57335;SDS011;43171;50.994;18.204;2022-10-31T00:21:08;29.60;;;16.80;;
57335;SDS011;43171;50.994;18.204;2022-10-31T00:30:50;21.10;;;12.80;;
57335;SDS011;43171;50.994;18.204;2022-10-31T00:40:32;30.20;;;15.00;;
57335;SDS011;43171;50.994;18.204;2022-10-31T00:50:14;22.30;;;14.00;;
57335;SDS011;43171;50.994;18.204;2022-10-31T00:59:55;23.40;;;14.80;;
57335;SDS011;43171;50.994;18.204;2022-10-31T01:09:39;23.50;;;13.60;;
57335;SDS011;43171;50.994;18.204;2022-10-31T01:19:21;22.90;;;14.10;;
57335;SDS011;43171;50.994;18.204;2022-10-31T01:21:47;30.50;;;19.60;;
57335;SDS011;43171;50.994;18.204;2022-10-31T01:31:30;29.70;;;15.10;;
57335;SDS011;43171;50.994;18.204;2022-10-31T01:41:17;27.30;;;11.90;;
57335;SDS011;43171;50.994;18.204;2022-10-31T01:51:01;26.10;;;15.70;;
57335;SDS011;43171;50.994;18.204;2022-10-31T02:00:51;18.10;;;12.90;;
57335;SDS011;43171;50.994;18.204;2022-10-31T02:10:39;24.80;;;14.90;;
57335;SDS011;43171;50.994;18.204;2022-10-31T02:13:06;30.10;;;18.50;;
57335;SDS011;43171;50.994;18.204;2022-10-31T02:23:02;24.40;;;11.20;;
57335;SDS011;43171;50.994;18.204;2022-10-31T02:33:26;20.90;;;13.90;;
57335;SDS011;43171;50.994;18.204;2022-10-31T02:43:50;33.50;;;14.80;;
57335;SDS011;43171;50.994;18.204;2022-10-31T03:11:26;23.00;;;14.00;;
57335;SDS011;43171;50.994;18.204;2022-10-31T03:29:05;45.80;;;16.10;;
57335;SDS011;43171;50.994;18.204;2022-10-31T03:38:49;21.10;;;14.90;;
57335;SDS011;43171;50.994;18.204;2022-10-31T03:48:34;26.20;;;12.60;;
57335;SDS011;43171;50.994;18.204;2022-10-31T03:56:05;27.90;;;17.60;;
57335;SDS011;43171;50.994;18.204;2022-10-31T04:05:56;32.80;;;15.20;;
57335;SDS011;43171;50.994;18.204;2022-10-31T04:15:43;13.10;;;7.20;;
57335;SDS011;43171;50.994;18.204;2022-10-31T04:25:27;26.70;;;18.30;;
57335;SDS011;43171;50.994;18.204;2022-10-31T04:35:10;18.30;;;10.30;;
57335;SDS011;43171;50.994;18.204;2022-10-31T04:44:54;22.20;;;12.30;;
57335;SDS011;43171;50.994;18.204;2022-10-31T04:54:36;16.40;;;11.90;;
57335;SDS011;43171;50.994;18.204;2022-10-31T05:04:18;26.40;;;13.80;;
57335;SDS011;43171;50.994;18.204;2022-10-31T05:14:00;26.00;;;13.10;;
57335;SDS011;43171;50.994;18.204;2022-10-31T05:30:58;82.90;;;48.60;;
57335;SDS011;43171;50.994;18.204;2022-10-31T05:40:39;70.60;;;37.00;;
57335;SDS011;43171;50.994;18.204;2022-10-31T05:50:22;24.80;;;13.70;;
57335;SDS011;43171;50.994;18.204;2022-10-31T06:00:10;20.40;;;15.30;;
57335;SDS011;43171;50.994;18.204;2022-10-31T06:17:08;17.80;;;9.60;;
57335;SDS011;43171;50.994;18.204;2022-10-31T06:26:50;37.70;;;23.80;;
57335;SDS011;43171;50.994;18.204;2022-10-31T06:36:32;36.50;;;19.60;;
57335;SDS011;43171;50.994;18.204;2022-10-31T06:46:14;27.80;;;15.90;;
57335;SDS011;43171;50.994;18.204;2022-10-31T06:55:58;38.10;;;17.10;;
57335;SDS011;43171;50.994;18.204;2022-10-31T07:05:41;20.90;;;10.90;;
57335;SDS011;43171;50.994;18.204;2022-10-31T07:15:26;27.60;;;12.80;;
57335;SDS011;43171;50.994;18.204;2022-10-31T07:25:09;32.00;;;15.30;;
57335;SDS011;43171;50.994;18.204;2022-10-31T07:49:25;27.30;;;11.90;;
57335;SDS011;43171;50.994;18.204;2022-10-31T07:59:07;29.10;;;17.20;;
57335;SDS011;43171;50.994;18.204;2022-10-31T08:08:48;23.40;;;12.40;;
57335;SDS011;43171;50.994;18.204;2022-10-31T08:18:32;15.40;;;8.80;;
57335;SDS011;43171;50.994;18.204;2022-10-31T08:28:14;27.30;;;14.10;;
57335;SDS011;43171;50.994;18.204;2022-10-31T08:37:58;7.80;;;4.60;;
57335;SDS011;43171;50.994;18.204;2022-10-31T08:47:48;20.90;;;11.80;;
57335;SDS011;43171;50.994;18.204;2022-10-31T08:57:30;31.30;;;10.90;;
57335;SDS011;43171;50.994;18.204;2022-10-31T09:07:12;20.60;;;12.80;;
57335;SDS011;43171;50.994;18.204;2022-10-31T09:16:54;21.50;;;9.80;;
57335;SDS011;43171;50.994;18.204;2022-10-31T09:26:35;17.50;;;9.50;;
57335;SDS011;43171;50.994;18.204;2022-10-31T09:36:19;18.40;;;7.90;;
57335;SDS011;43171;50.994;18.204;2022-10-31T10:32:29;4.80;;;4.40;;
57335;SDS011;43171;50.994;18.204;2022-10-31T10:42:37;4.90;;;3.70;;
57335;SDS011;43171;50.994;18.204;2022-10-31T11:03:16;8.70;;;5.80;;
57335;SDS011;43171;50.994;18.204;2022-10-31T11:13:26;8.30;;;7.40;;
57335;SDS011;43171;50.994;18.204;2022-10-31T11:23:23;19.70;;;8.00;;
57335;SDS011;43171;50.994;18.204;2022-10-31T11:33:19;22.60;;;7.50;;
57335;SDS011;43171;50.994;18.204;2022-10-31T11:43:21;9.80;;;5.50;;
57335;SDS011;43171;50.994;18.204;2022-10-31T11:53:17;12.50;;;6.90;;
57335;SDS011;43171;50.994;18.204;2022-10-31T12:21:26;15.80;;;6.80;;
57335;SDS011;43171;50.994;18.204;2022-10-31T12:31:34;10.10;;;5.90;;
57335;SDS011;43171;50.994;18.204;2022-10-31T12:41:56;7.40;;;6.10;;
57335;SDS011;43171;50.994;18.204;2022-10-31T13:02:53;18.60;;;4.90;;
57335;SDS011;43171;50.994;18.204;2022-10-31T13:12:37;19.10;;;5.20;;
57335;SDS011;43171;50.994;18.204;2022-10-31T13:43:30;5.00;;;2.50;;
57335;SDS011;43171;50.994;18.204;2022-10-31T13:53:37;10.10;;;4.10;;
57335;SDS011;43171;50.994;18.204;2022-10-31T14:11:03;2.40;;;1.70;;
57335;SDS011;43171;50.994;18.204;2022-10-31T14:20:57;9.50;;;3.50;;
57335;SDS011;43171;50.994;18.204;2022-10-31T14:30:58;4.80;;;3.70;;
57335;SDS011;43171;50.994;18.204;2022-10-31T14:40:52;9.00;;;4.20;;
57335;SDS011;43171;50.994;18.204;2022-10-31T14:51:13;8.00;;;4.30;;
57335;SDS011;43171;50.994;18.204;2022-10-31T15:01:15;4.00;;;3.50;;
57335;SDS011;43171;50.994;18.204;2022-10-31T15:11:24;11.50;;;5.50;;
57335;SDS011;43171;50.994;18.204;2022-10-31T15:21:17;13.30;;;5.40;;
57335;SDS011;43171;50.994;18.204;2022-10-31T15:31:13;15.00;;;7.30;;
57335;SDS011;43171;50.994;18.204;2022-10-31T15:41:22;16.90;;;6.50;;
57335;SDS011;43171;50.994;18.204;2022-10-31T16:13:15;31.60;;;13.70;;
57335;SDS011;43171;50.994;18.204;2022-10-31T16:23:13;19.80;;;13.80;;
57335;SDS011;43171;50.994;18.204;2022-10-31T16:33:30;21.70;;;16.30;;
57335;SDS011;43171;50.994;18.204;2022-10-31T16:43:41;15.30;;;7.80;;
57335;SDS011;43171;50.994;18.204;2022-10-31T16:53:24;26.30;;;10.00;;
57335;SDS011;43171;50.994;18.204;2022-10-31T17:05:39;15.00;;;12.30;;
57335;SDS011;43171;50.994;18.204;2022-10-31T17:15:23;24.50;;;14.50;;
57335;SDS011;43171;50.994;18.204;2022-10-31T17:25:11;16.80;;;12.40;;
57335;SDS011;43171;50.994;18.204;2022-10-31T17:34:56;35.30;;;20.80;;
57335;SDS011;43171;50.994;18.204;2022-10-31T17:44:37;28.90;;;16.70;;
57335;SDS011;43171;50.994;18.204;2022-10-31T17:54:20;38.50;;;19.80;;
57335;SDS011;43171;50.994;18.204;2022-10-31T18:01:38;44.70;;;28.20;;
57335;SDS011;43171;50.994;18.204;2022-10-31T18:11:22;26.70;;;13.80;;
57335;SDS011;43171;50.994;18.204;2022-10-31T18:21:10;55.40;;;33.70;;
57335;SDS011;43171;50.994;18.204;2022-10-31T18:30:52;41.00;;;23.80;;
57335;SDS011;43171;50.994;18.204;2022-10-31T18:33:17;62.40;;;37.00;;
57335;SDS011;43171;50.994;18.204;2022-10-31T18:43:00;87.60;;;42.00;;
57335;SDS011;43171;50.994;18.204;2022-10-31T18:52:43;51.00;;;27.20;;
57335;SDS011;43171;50.994;18.204;2022-10-31T19:09:41;40.50;;;24.20;;
57335;SDS011;43171;50.994;18.204;2022-10-31T19:19:22;33.40;;;23.10;;
57335;SDS011;43171;50.994;18.204;2022-10-31T19:36:21;36.20;;;24.40;;
57335;SDS011;43171;50.994;18.204;2022-10-31T19:46:05;54.10;;;25.70;;
57335;SDS011;43171;50.994;18.204;2022-10-31T19:55:53;42.20;;;20.20;;
57335;SDS011;43171;50.994;18.204;2022-10-31T20:05:39;21.60;;;15.90;;
57335;SDS011;43171;50.994;18.204;2022-10-31T20:17:48;39.70;;;25.60;;
57335;SDS011;43171;50.994;18.204;2022-10-31T20:27:30;44.30;;;23.90;;
57335;SDS011;43171;50.994;18.204;2022-10-31T20:37:12;32.70;;;18.50;;
57335;SDS011;43171;50.994;18.204;2022-10-31T20:46:55;25.40;;;15.70;;
57335;SDS011;43171;50.994;18.204;2022-10-31T20:51:46;33.80;;;20.30;;
57335;SDS011;43171;50.994;18.204;2022-10-31T21:01:29;36.70;;;15.30;;
57335;SDS011;43171;50.994;18.204;2022-10-31T21:11:15;22.70;;;14.30;;
57335;SDS011;43171;50.994;18.204;2022-10-31T21:21:08;27.00;;;16.60;;
57335;SDS011;43171;50.994;18.204;2022-10-31T21:30:54;25.10;;;16.50;;
57335;SDS011;43171;50.994;18.204;2022-10-31T21:40:40;25.90;;;14.40;;
57335;SDS011;43171;50.994;18.204;2022-10-31T21:43:05;30.70;;;18.20;;
57335;SDS011;43171;50.994;18.204;2022-10-31T22:00:03;20.00;;;14.10;;
57335;SDS011;43171;50.994;18.204;2022-10-31T22:09:48;18.60;;;14.40;;
57335;SDS011;43171;50.994;18.204;2022-10-31T22:19:31;32.50;;;18.90;;
57335;SDS011;43171;50.994;18.204;2022-10-31T22:29:14;41.50;;;21.30;;
57335;SDS011;43171;50.994;18.204;2022-10-31T22:38:59;23.70;;;16.70;;
57335;SDS011;43171;50.994;18.204;2022-10-31T22:48:44;24.40;;;15.10;;
57335;SDS011;43171;50.994;18.204;2022-10-31T22:58:30;27.00;;;13.90;;
57335;SDS011;43171;50.994;18.204;2022-10-31T23:08:23;31.60;;;11.20;;
57335;SDS011;43171;50.994;18.204;2022-10-31T23:13:14;34.40;;;21.80;;
57335;SDS011;43171;50.994;18.204;2022-10-31T23:23:18;30.80;;;18.10;;
57335;SDS011;43171;50.994;18.204;2022-10-31T23:33:19;36.00;;;23.60;;
57335;SDS011;43171;50.994;18.204;2022-10-31T23:43:03;27.20;;;17.50;;
57335;SDS011;43171;50.994;18.204;2022-10-31T23:52:44;23.50;;;15.40;;
